Latest Coastal Weather Observations for Low Isles

IDQ60701

Issued at 9:15 pm EST Wednesday 30 July 2014 (issued every 10 minutes, with the page automatically refreshed every 10 minutes)

About coastal observations | Map of coastal stations | Coastal observations for QLD | Marine services | Other Formats
Station Details ID: 031037 Name: LOW ISLES LIGHTHOUSE Lat: -16.38 Lon: 145.56 Height: 2.9 m
Data from the previous 72 hours. | See also: Recent months at Low Isles
Date/Time
EST
Temp

°C
Wind Pressure Rain
since 9am
mm
Weather Cloud Vis
km
Sea
Height
m
Swell
Dir
 
Speed
knots
Gust
knots
hPa Trend Height
m
Period
s
Dir
30/09:00pm 22.9 SSE 14 15 1018.2 - 0.4 - - - - - - -
30/08:30pm 23.2 SE 13 15 1018.2 - 0.4 - - - - - - -
30/08:00pm 23.3 ESE 13 17 1017.8 - 0.4 - - - - - - -
30/07:30pm 23.3 ESE 12 15 1017.5 - 0.4 - - - - - - -
30/07:00pm 23.5 SE 13 15 1017.1 - 0.4 - - - - - - -
30/06:30pm 23.4 SE 12 14 1017.0 - 0.4 - - - - - - -
30/06:00pm 23.6 SE 13 16 1016.7 - 0.4 - - - - - - -
30/05:30pm 24.0 ESE 13 17 1016.8 - 0.4 - - - - - - -
30/05:00pm 24.3 ESE 14 17 1016.8 - 0.4 - - - - - - -
30/04:30pm 24.7 SE 14 16 1016.5 - 0.4 - - - - - - -
30/04:00pm 24.6 SE 15 17 1016.4 - 0.4 - - - - - - -
30/03:30pm 24.8 SE 17 19 1016.4 - 0.4 - - - - - - -
30/03:00pm 25.0 SE 16 19 1016.5 - 0.4 Haze Mostly cloudy 10 - - - -
30/02:30pm 25.0 SE 14 16 1016.8 - 0.4 - - - - - - -
30/02:00pm 24.6 SSE 14 16 1017.2 - 0.4 - - - - - - -
30/01:30pm 24.6 SSE 15 16 1017.5 - 0.4 - - - - - - -
30/01:00pm 23.9 SSE 15 17 1017.9 - 0.4 - - - - - - -
30/12:30pm 24.0 SSE 14 16 1018.1 - 0.2 - - - - - - -
30/12:00pm 23.8 SSE 14 17 1018.5 - 0.2 - - - - - - -
30/11:30am 23.5 SSE 9 13 1019.0 - 0.2 - - - - - - -
30/11:00am 22.4 SSE 13 15 1019.4 - 0.2 - - - - - - -
30/10:30am 22.6 SSE 13 15 1019.8 - 0.2 - - - - - - -
30/10:00am 22.0 SE 12 15 1019.8 - 0.2 - - - - - - -
30/09:30am 21.5 SE 15 18 1019.8 - 0.2 - - - - - - -
30/09:00am 22.1 SE 15 18 1019.6 - 0.0 Distant precip. Cloudy 8 - - - -
30/08:30am 22.2 SSE 16 18 1019.4 - 0.0 - - - - - - -
30/08:00am 22.1 SSE 15 17 1019.3 - 0.0 - - - - - - -
30/07:30am 22.2 SSE 15 18 1019.0 - 0.0 - - - - - - -
30/07:00am 22.1 SSE 15 16 1018.8 - 0.0 - - - - - - -
30/06:30am 22.1 SSE 14 16 1018.4 - 0.0 - - - - - - -
30/06:00am 22.0 SSE 12 14 1018.0 - 0.0 - - - - - - -
30/05:30am 22.2 SSE 14 15 1018.0 - 0.0 - - - - - - -
30/05:00am 22.1 SSE 14 15 1017.9 - 0.0 - - - - - - -
30/04:30am 22.1 SSE 14 17 1017.8 - 0.0 - - - - - - -
30/04:00am 22.0 SSE 15 17 1017.7 - 0.0 - - - - - - -
30/03:30am 22.0 SSE 15 16 1017.7 - 0.0 - - - - - - -
30/03:00am 22.1 SSE 15 17 1017.8 - 0.0 - - - - - - -
30/02:30am 22.1 SSE 15 16 1018.1 - 0.0 - - - - - - -
30/02:00am 22.3 SSE 15 17 1018.4 - 0.0 - - - - - - -
30/01:30am 22.2 SSE 15 16 1018.7 - 0.0 - - - - - - -
30/01:00am 22.2 SSE 17 19 1019.0 - 0.0 - - - - - - -
30/12:30am 22.1 SSE 16 19 1019.4 - 0.0 - - - - - - -
30/12:00am 22.2 SSE 15 17 1019.3 - 0.0 - - - - - - -
 
Date/Time
EST
Temp

°C
Wind Pressure Rain
since 9am
mm
Weather Cloud Vis
km
Sea
Height
m
Swell
Dir
 
Speed
knots
Gust
knots
hPa Trend Height
m
Period
s
Dir
29/11:30pm 22.3 SSE 14 16 1019.5 - 0.0 - - - - - - -
29/11:00pm 22.3 SSE 13 15 1019.6 - 0.0 - - - - - - -
29/10:30pm 22.5 SSE 15 16 1019.7 - 0.0 - - - - - - -
29/10:00pm 22.6 SSE 14 16 1019.6 - 0.0 - - - - - - -
29/09:30pm 22.7 SSE 15 16 1019.6 - 0.0 - - - - - - -
29/09:00pm 22.7 SSE 18 21 1019.2 - 0.0 - - - - - - -
29/08:30pm 22.7 SSE 18 20 1019.1 - 0.0 - - - - - - -
29/08:00pm 22.8 SE 16 18 1019.0 - 0.0 - - - - - - -
29/07:30pm 22.8 SE 15 17 1018.8 - 0.0 - - - - - - -
29/07:00pm 22.9 SSE 14 16 1018.6 - 0.0 - - - - - - -
29/06:30pm 22.8 SE 14 16 1018.4 - 0.0 - - - - - - -
29/06:00pm 22.9 SE 14 16 1018.0 - 0.0 - - - - - - -
29/05:30pm 22.9 SE 14 18 1018.0 - 0.0 - - - - - - -
29/05:00pm 23.0 SE 15 17 1017.8 - 0.0 - - - - - - -
29/04:30pm 24.0 SE 15 18 1017.6 - 0.0 - - - - - - -
29/04:00pm 24.5 SE 16 19 1017.5 - 0.0 - - - - - - -
29/03:30pm 25.0 SE 16 20 1017.6 - 0.0 - - - - - - -
29/03:00pm 25.1 ESE 16 20 1017.7 - 0.0 Haze Mostly clear 10 - - - -
29/02:30pm 25.4 ESE 16 19 1018.0 - 0.0 - - - - - - -
29/02:00pm 25.0 SE 18 21 1018.4 - 0.0 - - - - - - -
29/01:30pm 25.0 SE 16 19 1018.9 - 0.0 - - - - - - -
29/01:00pm 24.6 SE 17 20 1019.1 - 0.0 - - - - - - -
29/12:30pm 24.6 SE 17 21 1019.5 - 0.0 - - - - - - -
29/12:00pm 24.4 SE 17 19 1019.8 - 0.0 - - - - - - -
29/11:30am 24.3 SE 18 21 1020.2 - 0.0 - - - - - - -
29/11:00am 23.8 SE 19 21 1020.4 - 0.0 - - - - - - -
29/10:30am 23.3 SE 19 21 1020.7 - 0.0 - - - - - - -
29/10:00am 23.1 SE 19 21 1020.8 - 0.0 - - - - - - -
29/09:30am 22.8 SSE 18 20 1020.8 - 0.0 - - - - - - -
29/09:00am 22.7 SSE 16 19 1020.5 - 2.0 Distant precip. Partly cloudy 10 - - - -
29/08:30am 22.5 SSE 17 19 1020.3 - 2.0 - - - - - - -
29/08:00am 22.2 SSE 17 20 1020.0 - 2.0 - - - - - - -
29/07:30am 22.2 SSE 17 19 1019.7 - 2.0 - - - - - - -
29/07:00am 22.0 SSE 16 20 1019.3 - 2.0 - - - - - - -
29/06:30am 22.0 SSE 17 20 1018.9 - 2.0 - - - - - - -
29/06:00am 22.2 SSE 15 17 1018.6 - 2.0 - - - - - - -
29/05:30am 22.0 SSE 16 18 1018.4 - 2.0 - - - - - - -
29/05:00am 22.1 SSE 15 17 1018.2 - 2.0 - - - - - - -
29/04:30am 22.2 SSE 16 18 1017.9 - 2.0 - - - - - - -
29/04:00am 22.3 SSE 15 17 1017.9 - 2.0 - - - - - - -
29/03:30am 22.2 SSE 16 18 1018.1 - 2.0 - - - - - - -
29/03:00am 22.3 SSE 17 19 1018.0 - 2.0 - - - - - - -
29/02:30am 22.5 SSE 15 17 1018.2 - 2.0 - - - - - - -
29/02:00am 22.6 SSE 15 17 1018.5 - 2.0 - - - - - - -
29/01:30am 22.5 SSE 16 17 1018.8 - 2.0 - - - - - - -
29/01:00am 22.5 SSE 14 16 1019.1 - 2.0 - - - - - - -
29/12:30am 22.5 SSE 15 17 1019.3 - 2.0 - - - - - - -
29/12:00am 22.5 SSE 15 17 1019.2 - 2.0 - - - - - - -
 
Date/Time
EST
Temp

°C
Wind Pressure Rain
since 9am
mm
Weather Cloud Vis
km
Sea
Height
m
Swell
Dir
 
Speed
knots
Gust
knots
hPa Trend Height
m
Period
s
Dir
28/11:30pm 22.5 SSE 16 19 1019.3 - 2.0 - - - - - - -
28/11:00pm 22.3 SSE 16 18 1019.4 - 2.0 - - - - - - -
28/10:30pm 22.4 SSE 15 17 1019.4 - 2.0 - - - - - - -
28/10:00pm 22.5 SSE 16 18 1019.5 - 2.0 - - - - - - -
28/09:30pm 22.4 SSE 15 17 1019.5 - 2.0 - - - - - - -
28/09:00pm 22.3 SSE 16 17 1019.3 - 2.0 - - - - - - -
28/08:30pm 22.4 SSE 15 17 1019.2 - 2.0 - - - - - - -
28/08:00pm 22.6 SSE 15 17 1019.1 - 2.0 - - - - - - -
28/07:30pm 22.5 SSE 15 17 1018.9 - 2.0 - - - - - - -
28/07:00pm 22.4 SSE 15 17 1018.6 - 2.0 - - - - - - -
28/06:30pm 22.5 SSE 13 15 1018.2 - 2.0 - - - - - - -
28/06:00pm 22.9 SSE 13 15 1017.8 - 2.0 - - - - - - -
28/05:30pm 23.0 SE 13 15 1017.7 - 2.0 - - - - - - -
28/05:00pm 23.0 SSE 13 15 1017.6 - 2.0 - - - - - - -
28/04:30pm 22.9 SSE 15 17 1017.7 - 2.0 - - - - - - -
28/04:00pm 23.3 SSE 15 17 1017.7 - 2.0 - - - - - - -
28/03:30pm 23.4 SSE 16 18 1017.6 - 2.0 - - - - - - -
28/03:00pm 23.4 SSE 17 19 1017.6 - 2.0 Distant precip. Partly cloudy 8 - - - -
28/02:30pm 22.2 SSE 16 19 1018.0 - 2.0 - - - - - - -
28/02:00pm 22.8 SSE 16 19 1018.2 - 1.8 - - - - - - -
28/01:30pm 22.8 SSE 17 19 1018.5 - 1.8 - - - - - - -
28/01:00pm 22.9 SSE 17 19 1019.0 - 1.8 - - - - - - -
28/12:30pm 22.7 SSE 17 21 1019.3 - 1.8 - - - - - - -
28/12:00pm 22.6 SSE 15 17 1019.5 - 1.8 - - - - - - -
28/11:30am 22.3 SE 11 14 1020.0 - 1.8 - - - - - - -
28/11:00am 22.4 SE 13 15 1020.2 - 0.8 - - - - - - -
28/10:30am 22.0 SE 17 21 1020.5 - 0.8 - - - - - - -
28/10:00am 22.2 SSE 18 22 1020.5 - 0.8 - - - - - - -
28/09:30am 21.5 SSE 18 21 1020.5 - 0.8 - - - - - - -
28/09:00am 21.9 SSE 19 23 1020.3 - 2.6 Showers Mostly cloudy 8 - - - -
28/08:30am 21.8 SSE 15 19 1020.0 - 2.6 - - - - - - -
28/08:00am 22.3 SSE 19 21 1019.5 - 2.6 - - - - - - -
28/07:30am 22.0 SSE 18 22 1019.2 - 2.2 - - - - - - -
28/07:00am 22.5 SSE 17 20 1018.8 - 2.0 - - - - - - -
28/06:30am 22.5 SSE 20 23 1018.4 - 2.0 - - - - - - -
28/06:29am 22.5 SSE 20 23 1018.4 - 2.0 - - - - - - -
28/06:00am 22.6 ESE 15 19 1017.9 - 2.0 - - - - - - -
28/05:30am 22.7 SE 15 19 1017.9 - 2.0 - - - - - - -
28/05:00am 22.6 SE 17 21 1017.9 - 2.0 - - - - - - -
28/04:30am 22.3 ESE 16 20 1017.8 - 2.0 - - - - - - -
28/04:00am 22.2 SSE 17 20 1017.8 - 2.0 - - - - - - -
28/03:30am 22.4 SSE 15 18 1017.6 - 2.0 - - - - - - -
28/03:00am 22.5 SSE 15 17 1017.8 - 2.0 - - - - - - -
28/02:30am 22.1 SSE 14 17 1018.3 - 2.0 - - - - - - -
28/02:00am 22.3 SSE 13 15 1018.5 - 2.0 - - - - - - -
28/01:30am 22.6 SSE 13 16 1018.7 - 2.0 - - - - - - -
28/01:00am 23.1 SE 15 18 1019.0 - 2.0 - - - - - - -
28/12:30am 23.1 ESE 16 19 1019.4 - 2.0 - - - - - - -
28/12:00am 23.0 ESE 15 18 1019.7 - 2.0 - - - - - - -
 
Date/Time
EST
Temp

°C
Wind Pressure Rain
since 9am
mm
Weather Cloud Vis
km
Sea
Height
m
Swell
Dir
 
Speed
knots
Gust
knots
hPa Trend Height
m
Period
s
Dir
27/11:30pm 23.0 ESE 15 19 1020.0 - 2.0 - - - - - - -
27/11:00pm 22.9 ESE 15 19 1020.3 - 2.0 - - - - - - -
27/10:30pm 22.5 SE 13 15 1020.6 - 2.0 - - - - - - -
27/10:00pm 22.6 SE 15 19 1020.8 - 2.0 - - - - - - -
27/09:30pm 22.4 SSE 15 17 1020.9 - 2.0 - - - - - - -

Other Formats:

Comma delimited format used in spreadsheet applications
http://www.bom.gov.au/fwo/IDQ60701/IDQ60701.94285.axf

JavaScript Object Notation format (JSON) in row-major order
http://www.bom.gov.au/fwo/IDQ60701/IDQ60701.94285.json